Ginys del Meteocat
Campanya meteocatpedra

Dades de l'estació automàtica Os de Balaguer - el Monestir d'Avellanes

?
?
Resum diari 23:00 TU
Dades diàries de l'estació meteorològica
Temperatura mitjana 9.5 °C
Temperatura màxima 15.0 °C 14:52 TU
Temperatura mínima 6.5 °C 4:34 TU
Humitat relativa mitjana 91%
Precipitació acumulada 0.2 mm
Ratxa màxima del vent (6 m) 11.2 km/h - 126º 11:30 TU
Irradiació solar global 9.3 MJ/m2

El tram horari està expressat en Temps Universal (TU). Cal sumar una hora en horari d'hivern i dues en horari d'estiu per passar a l'hora oficial.

Os de Balaguer - el Monestir d'Avellanes

Metadades estació meteorol´gica
Municipi Os de Balaguer
Comarca Noguera
Altitud 576 m
Data alta 07.07.1995
Estat actual Operativa
Dades de període
Període
TU
TM
°C
TX
°C
TN
°C
HRM
%
PPT
mm
VVM (6 m)
km/h
DVM (6 m)
graus
VVX (6 m)
km/h
RS
W/m2
00:00 - 00:30 8.4 8.6 7.8 95 0.0 1.4 112 4.7 0
00:30 - 01:00 7.7 7.8 7.3 97 0.0 0.0 35 1.4 0
01:00 - 01:30 7.3 7.4 7.1 98 0.0 0.7 62 4.3 0
01:30 - 02:00 7.2 7.5 6.7 98 0.0 1.1 88 4.7 0
02:00 - 02:30 7.1 7.5 6.6 98 0.0 2.9 49 5.8 0
02:30 - 03:00 7.2 7.6 6.6 98 0.0 1.8 22 4.7 0
03:00 - 03:30 7.0 7.3 6.7 98 0.0 2.5 54 7.2 0
03:30 - 04:00 7.0 7.4 6.6 98 0.0 3.2 89 6.1 0
04:00 - 04:30 6.7 6.9 6.5 98 0.0 2.2 104 5.0 0
04:30 - 05:00 7.3 7.8 6.5 99 0.0 0.4 108 4.3 0
05:00 - 05:30 7.5 7.7 7.4 99 0.0 0.7 353 3.2 (s/d)
05:30 - 06:00 7.7 7.7 7.7 99 0.1 1.1 20 5.0 0
06:00 - 06:30 7.7 7.8 7.6 99 0.1 4.3 39 8.3 9
06:30 - 07:00 7.4 7.6 7.4 99 0.0 2.9 53 8.3 24
07:00 - 07:30 7.6 7.8 7.5 99 0.0 2.9 71 7.9 50
07:30 - 08:00 8.2 8.4 7.9 99 0.0 2.5 88 6.1 74
08:00 - 08:30 8.7 8.9 8.4 99 0.0 2.5 90 7.2 106
08:30 - 09:00 9.0 9.1 8.8 99 0.0 1.4 85 5.8 98
09:00 - 09:30 9.0 9.2 8.8 99 0.0 1.1 109 4.0 101
09:30 - 10:00 9.4 9.5 9.1 98 0.0 1.1 116 4.7 116
10:00 - 10:30 9.4 9.6 9.3 98 0.0 3.6 103 7.6 174
10:30 - 11:00 10.0 10.7 9.6 94 0.0 3.2 98 8.6 286
11:00 - 11:30 11.0 11.8 10.6 89 0.0 4.0 102 10.4 366
11:30 - 12:00 12.3 13.1 11.3 83 0.0 4.0 88 11.2 625
12:00 - 12:30 12.7 13.1 12.3 83 0.0 2.9 200 8.6 388
12:30 - 13:00 12.6 13.2 12.1 83 0.0 2.9 207 8.6 311
13:00 - 13:30 12.4 13.4 12.0 85 0.0 3.6 196 11.2 404
13:30 - 14:00 13.7 14.1 13.4 77 0.0 2.2 145 7.6 541
14:00 - 14:30 14.1 14.6 13.9 75 0.0 2.5 151 8.3 408
14:30 - 15:00 14.5 15.0 14.1 73 0.0 2.9 158 9.4 379
15:00 - 15:30 14.0 14.3 13.8 72 0.0 2.2 119 7.6 284
15:30 - 16:00 14.1 14.4 13.8 69 0.0 1.4 154 4.7 207
16:00 - 16:30 13.2 13.8 12.3 70 0.0 1.1 118 4.3 122
16:30 - 17:00 11.4 12.3 10.4 77 0.0 2.2 111 6.8 50
17:00 - 17:30 9.9 10.4 9.4 87 0.0 1.4 77 7.2 7
17:30 - 18:00 9.4 9.7 8.8 91 0.0 2.5 69 5.0 3
18:00 - 18:30 9.3 9.5 9.1 91 0.0 1.8 0 5.8 3
18:30 - 19:00 9.2 9.4 8.8 91 0.0 0.7 8 4.0 3
19:00 - 19:30 9.2 9.8 8.8 92 0.0 1.4 8 4.7 4
19:30 - 20:00 9.9 10.1 9.7 90 0.0 1.4 118 5.4 4
20:00 - 20:30 9.3 9.8 8.9 92 0.0 1.1 315 6.1 4
20:30 - 21:00 8.7 8.9 8.5 95 0.0 1.8 49 5.0 4
21:00 - 21:30 8.5 8.7 8.2 95 0.0 1.8 49 6.5 4
21:30 - 22:00 8.1 8.2 7.9 95 0.0 2.2 75 6.1 4
22:00 - 22:30 8.2 8.4 8.0 95 0.0 2.2 77 7.2 4
22:30 - 23:00 8.5 8.9 8.2 95 0.0 4.0 75 7.6 4
23:00 - 23:30 (s/d) (s/d) (s/d) (s/d) (s/d) (s/d) (s/d) (s/d) (s/d)

Les dades en taronja només han passat un control de qualitat automàtic. Resta pendent la seva validació definitiva.